createdAt,value
2019-01-31T00:02:24.909Z,18.73
2019-01-31T00:05:00.581Z,19.13
2019-01-31T00:08:46.008Z,19.33
2019-01-31T00:11:26.003Z,19.87
2019-01-31T00:14:06.557Z,19.77
2019-01-31T00:16:42.820Z,19.07
2019-01-31T00:21:21.298Z,20.40
2019-01-31T00:24:04.747Z,22.40
2019-01-31T00:26:43.183Z,21.30
2019-01-31T00:30:19.692Z,20.90
2019-01-31T00:33:14.606Z,19.70
2019-01-31T00:35:50.671Z,18.77
2019-01-31T00:38:59.145Z,19.37
2019-01-31T00:41:35.017Z,18.80
2019-01-31T00:44:11.835Z,19.53
2019-01-31T00:47:04.089Z,18.20
2019-01-31T00:49:40.068Z,19.67
2019-01-31T00:52:18.777Z,19.23
2019-01-31T00:55:00.582Z,19.57
2019-01-31T00:57:42.370Z,19.57
2019-01-31T01:00:16.993Z,19.30
2019-01-31T01:05:00.669Z,18.63
2019-01-31T01:07:40.615Z,19.13
2019-01-31T01:11:16.422Z,19.40
2019-01-31T01:13:55.625Z,18.47
2019-01-31T01:16:31.531Z,19.40
2019-01-31T01:19:09.961Z,18.60
2019-01-31T01:21:47.612Z,19.30
2019-01-31T01:24:39.933Z,20.90
2019-01-31T01:27:22.621Z,19.33
2019-01-31T01:30:09.197Z,20.30
2019-01-31T01:32:50.891Z,20.37
2019-01-31T01:35:27.690Z,20.47
2019-01-31T01:38:20.241Z,19.80
2019-01-31T01:40:54.839Z,18.90
2019-01-31T01:43:37.142Z,17.87
2019-01-31T01:46:32.624Z,18.37
2019-01-31T01:49:10.558Z,17.13
2019-01-31T01:51:54.911Z,17.80
2019-01-31T01:54:36.782Z,19.43
2019-01-31T01:57:45.330Z,18.17
2019-01-31T02:00:20.610Z,18.07
2019-01-31T02:03:02.696Z,17.90
2019-01-31T02:05:42.876Z,18.87
2019-01-31T02:08:23.345Z,17.90
2019-01-31T02:11:00.781Z,18.47
2019-01-31T02:13:43.993Z,18.43
2019-01-31T02:16:31.127Z,17.77
2019-01-31T02:19:04.009Z,18.37
2019-01-31T02:23:48.093Z,16.93
2019-01-31T02:27:28.255Z,18.73
2019-01-31T02:30:14.439Z,16.37
2019-01-31T02:34:53.435Z,17.47
2019-01-31T02:37:33.842Z,17.83
2019-01-31T02:40:21.485Z,18.00
2019-01-31T02:42:55.269Z,17.30
2019-01-31T02:46:09.994Z,17.50
2019-01-31T02:48:45.634Z,17.47
2019-01-31T02:51:54.741Z,17.27
2019-01-31T02:54:36.920Z,18.33
2019-01-31T02:57:16.127Z,16.20
2019-01-31T02:59:54.343Z,16.87
2019-01-31T03:02:29.979Z,16.17
2019-01-31T03:05:23.453Z,17.23
2019-01-31T03:08:12.464Z,16.00
2019-01-31T03:10:44.529Z,17.20
2019-01-31T03:13:26.075Z,16.80
2019-01-31T03:16:04.382Z,16.97
2019-01-31T03:18:47.743Z,15.47
2019-01-31T03:21:23.012Z,16.83
2019-01-31T03:24:06.234Z,17.10
2019-01-31T03:27:22.324Z,17.10
2019-01-31T03:32:03.533Z,16.07
2019-01-31T03:34:46.954Z,16.67
2019-01-31T03:37:31.243Z,15.70
2019-01-31T03:40:13.162Z,16.87
2019-01-31T03:43:55.715Z,16.83
2019-01-31T03:46:41.583Z,15.70
2019-01-31T03:49:17.958Z,17.63
2019-01-31T03:51:57.036Z,16.20
2019-01-31T03:54:35.291Z,17.20
2019-01-31T03:59:18.576Z,16.73
2019-01-31T04:01:56.345Z,15.93
2019-01-31T04:04:28.292Z,15.47
2019-01-31T04:06:56.055Z,16.20
2019-01-31T04:09:23.107Z,16.77
2019-01-31T04:11:50.150Z,16.03
2019-01-31T04:14:17.202Z,16.30
2019-01-31T04:16:44.404Z,16.13
2019-01-31T04:19:11.437Z,16.10
2019-01-31T04:21:38.448Z,15.50
2019-01-31T04:24:05.497Z,16.57
2019-01-31T04:26:32.564Z,16.20
2019-01-31T04:28:59.591Z,15.60
2019-01-31T04:31:26.578Z,16.27
2019-01-31T04:33:53.510Z,15.93
2019-01-31T04:36:20.525Z,16.20
2019-01-31T04:38:47.470Z,17.50
2019-01-31T04:41:14.414Z,16.27
2019-01-31T04:43:41.431Z,16.13
2019-01-31T04:46:08.441Z,15.67
2019-01-31T04:48:38.599Z,15.30
2019-01-31T04:51:05.725Z,14.93
2019-01-31T04:53:32.763Z,15.83
2019-01-31T04:55:59.703Z,15.80
2019-01-31T04:58:26.703Z,15.17
2019-01-31T05:00:53.728Z,15.50
2019-01-31T05:03:20.934Z,17.07
2019-01-31T05:05:47.928Z,16.70
2019-01-31T05:08:14.973Z,16.20
2019-01-31T05:10:43.390Z,15.03
2019-01-31T05:13:09.089Z,16.00
2019-01-31T05:15:36.091Z,15.90
2019-01-31T05:18:03.134Z,15.20
2019-01-31T05:20:30.077Z,16.13
2019-01-31T05:22:57.025Z,17.03
2019-01-31T05:25:24.643Z,16.60
2019-01-31T05:27:51.634Z,16.40
2019-01-31T05:30:20.978Z,15.77
2019-01-31T05:32:48.865Z,15.07
2019-01-31T05:35:15.903Z,15.27
2019-01-31T05:37:42.828Z,14.33
2019-01-31T05:40:11.573Z,15.87
2019-01-31T05:42:38.579Z,15.63
2019-01-31T05:45:08.018Z,14.93
2019-01-31T05:47:35.057Z,16.03
2019-01-31T05:50:02.042Z,15.73
2019-01-31T05:52:29.026Z,16.20
2019-01-31T05:54:56.090Z,16.20
2019-01-31T05:57:23.158Z,15.30
2019-01-31T05:59:50.171Z,16.03
2019-01-31T06:02:17.158Z,15.93
2019-01-31T06:04:44.116Z,14.37
2019-01-31T06:07:11.601Z,14.17
2019-01-31T06:09:38.307Z,14.37
2019-01-31T06:12:05.281Z,14.60
2019-01-31T06:14:32.233Z,15.53
2019-01-31T06:16:59.228Z,13.80
2019-01-31T06:19:26.180Z,15.20
2019-01-31T06:21:53.303Z,13.83
2019-01-31T06:24:20.405Z,15.57
2019-01-31T06:26:47.389Z,15.57
2019-01-31T06:29:14.322Z,16.53
2019-01-31T06:31:41.304Z,14.77
2019-01-31T06:34:08.394Z,14.93
2019-01-31T06:36:35.543Z,14.40
2019-01-31T06:39:02.686Z,16.03
2019-01-31T06:41:29.726Z,16.53
2019-01-31T06:43:56.694Z,15.47
2019-01-31T06:46:23.718Z,14.43
2019-01-31T06:48:50.754Z,14.30
2019-01-31T06:51:17.780Z,14.87
2019-01-31T06:53:44.899Z,14.30
2019-01-31T06:56:11.883Z,14.43
2019-01-31T06:58:41.080Z,14.53
2019-01-31T07:01:06.914Z,14.67
2019-01-31T07:03:33.909Z,15.07
2019-01-31T07:06:00.921Z,15.17
2019-01-31T07:08:27.947Z,15.03
2019-01-31T07:10:54.928Z,13.87
2019-01-31T07:13:22.206Z,13.83
2019-01-31T07:15:49.211Z,14.20
2019-01-31T07:18:16.267Z,16.87
2019-01-31T07:20:43.324Z,17.83
2019-01-31T07:23:10.330Z,20.90
2019-01-31T07:25:37.370Z,16.97
2019-01-31T07:28:04.420Z,16.87
2019-01-31T07:30:31.439Z,15.97
2019-01-31T07:32:58.431Z,15.30
2019-01-31T07:35:25.603Z,15.53
2019-01-31T07:37:53.172Z,17.47
2019-01-31T07:40:20.020Z,25.00
2019-01-31T07:42:47.027Z,14.73
2019-01-31T07:45:20.573Z,15.03
2019-01-31T07:47:47.535Z,14.73
2019-01-31T07:50:14.554Z,16.07
2019-01-31T07:52:41.561Z,17.30
2019-01-31T07:55:10.016Z,15.23
2019-01-31T07:57:37.087Z,18.07
2019-01-31T08:00:05.442Z,20.47
2019-01-31T08:02:32.655Z,19.53
2019-01-31T08:04:59.735Z,17.00
2019-01-31T08:07:28.749Z,16.40
2019-01-31T08:09:56.026Z,16.03
2019-01-31T08:12:22.467Z,17.37
2019-01-31T08:14:49.446Z,16.87
2019-01-31T08:17:16.398Z,14.93
2019-01-31T08:19:43.365Z,15.00
2019-01-31T08:22:10.350Z,16.07
2019-01-31T08:24:37.306Z,15.30
2019-01-31T08:27:04.295Z,15.47
2019-01-31T08:29:31.263Z,13.87
2019-01-31T08:31:58.249Z,14.23
2019-01-31T08:34:26.309Z,15.33
2019-01-31T08:36:53.289Z,16.80
2019-01-31T08:39:20.374Z,18.43
2019-01-31T08:41:47.346Z,16.30
2019-01-31T08:44:14.303Z,15.53
2019-01-31T08:46:41.296Z,15.37
2019-01-31T08:49:08.387Z,14.87
2019-01-31T08:51:35.366Z,14.50
2019-01-31T08:54:02.396Z,16.20
2019-01-31T08:56:29.394Z,18.13
2019-01-31T08:58:56.414Z,16.57
2019-01-31T09:01:23.726Z,15.30
2019-01-31T09:03:50.701Z,14.73
2019-01-31T09:06:17.904Z,15.03
2019-01-31T09:08:45.424Z,14.43
2019-01-31T09:11:12.595Z,15.43
2019-01-31T09:13:40.655Z,15.60
2019-01-31T09:16:07.810Z,14.67
2019-01-31T09:18:34.933Z,14.63
2019-01-31T09:21:19.762Z,15.67
2019-01-31T09:26:02.215Z,15.00
2019-01-31T09:28:40.443Z,14.37
2019-01-31T09:31:16.898Z,14.57
2019-01-31T09:35:56.559Z,13.80
2019-01-31T09:38:36.986Z,16.03
2019-01-31T09:41:15.997Z,15.53
2019-01-31T09:45:56.668Z,13.77
2019-01-31T09:48:38.418Z,13.73
2019-01-31T09:51:15.324Z,14.70
2019-01-31T09:55:00.749Z,13.60
2019-01-31T09:58:16.388Z,13.37
2019-01-31T10:00:58.132Z,13.47
2019-01-31T10:03:54.389Z,13.40
2019-01-31T10:06:36.901Z,13.67
2019-01-31T10:09:18.035Z,14.10
2019-01-31T10:12:54.853Z,14.47
2019-01-31T10:17:57.784Z,14.93
2019-01-31T10:22:44.578Z,14.00
2019-01-31T10:25:18.718Z,14.03
2019-01-31T10:29:15.963Z,13.13
2019-01-31T10:31:58.520Z,13.47
2019-01-31T10:37:39.984Z,13.37
2019-01-31T10:40:23.892Z,13.57
2019-01-31T10:43:09.330Z,13.43
2019-01-31T10:45:48.562Z,12.87
2019-01-31T10:48:27.993Z,14.13
2019-01-31T10:51:39.554Z,13.00
2019-01-31T10:54:14.349Z,14.37
2019-01-31T10:57:11.083Z,14.47
2019-01-31T10:59:48.921Z,13.57
2019-01-31T11:02:32.189Z,12.63
2019-01-31T11:05:17.441Z,13.13
2019-01-31T11:07:59.958Z,13.33
2019-01-31T11:10:42.055Z,13.23
2019-01-31T11:13:23.286Z,14.57
2019-01-31T11:16:15.924Z,14.73
2019-01-31T11:19:01.565Z,13.13
2019-01-31T11:22:12.782Z,14.03
2019-01-31T11:24:48.142Z,14.47
2019-01-31T11:28:31.991Z,13.43
2019-01-31T11:34:32.443Z,12.63
2019-01-31T11:37:02.310Z,11.33
2019-01-31T11:41:48.660Z,11.97
2019-01-31T11:44:47.106Z,10.63
2019-01-31T11:47:42.521Z,10.23
2019-01-31T11:50:27.533Z,8.87
2019-01-31T11:53:09.745Z,8.37
2019-01-31T11:56:48.905Z,8.70
2019-01-31T11:59:16.003Z,8.70
2019-01-31T12:01:43.149Z,9.90
2019-01-31T12:04:12.545Z,8.63
2019-01-31T12:06:39.652Z,8.83
2019-01-31T12:09:11.362Z,8.63
2019-01-31T12:11:38.541Z,8.33
2019-01-31T12:14:05.642Z,8.83
2019-01-31T12:16:32.761Z,9.17
2019-01-31T12:18:59.982Z,8.33
2019-01-31T12:21:27.542Z,9.20
2019-01-31T12:23:54.664Z,9.87
2019-01-31T12:26:21.826Z,8.50
2019-01-31T12:28:50.995Z,9.53
2019-01-31T12:31:16.038Z,9.60
2019-01-31T12:33:43.288Z,10.03
2019-01-31T12:36:10.485Z,8.83
2019-01-31T12:38:37.723Z,9.17
2019-01-31T12:41:05.019Z,10.07
2019-01-31T12:43:35.322Z,9.63
2019-01-31T12:46:00.025Z,9.53
2019-01-31T12:48:27.110Z,9.73
2019-01-31T12:50:54.228Z,9.07
2019-01-31T12:53:21.348Z,10.07
2019-01-31T12:55:48.429Z,9.50
2019-01-31T12:58:15.505Z,9.97
2019-01-31T13:00:42.590Z,10.90
2019-01-31T13:03:09.714Z,10.13
2019-01-31T13:05:36.851Z,9.80
2019-01-31T13:08:04.478Z,10.23
2019-01-31T13:10:31.686Z,11.23
2019-01-31T13:12:58.807Z,10.67
2019-01-31T13:15:26.032Z,10.40
2019-01-31T13:17:54.217Z,10.50
2019-01-31T13:40:32.680Z,8.50
2019-01-31T13:42:59.854Z,8.57
2019-01-31T13:45:33.285Z,8.83
2019-01-31T13:48:02.898Z,9.27
2019-01-31T13:50:30.090Z,8.63
2019-01-31T13:52:57.290Z,8.07
2019-01-31T13:55:26.460Z,8.00
2019-01-31T13:57:54.465Z,10.30
2019-01-31T14:00:21.615Z,11.87
2019-01-31T14:02:48.834Z,13.07
2019-01-31T14:05:15.978Z,12.50
2019-01-31T14:07:43.165Z,9.17
2019-01-31T14:10:12.753Z,11.17
2019-01-31T14:12:39.853Z,9.53
2019-01-31T14:15:07.542Z,10.43
2019-01-31T14:17:34.731Z,9.53
2019-01-31T14:20:01.845Z,10.53
2019-01-31T14:22:29.035Z,10.73
2019-01-31T14:24:56.192Z,10.53
2019-01-31T14:27:23.412Z,12.70
2019-01-31T14:30:10.163Z,11.03
2019-01-31T14:32:37.359Z,10.20
2019-01-31T14:35:05.222Z,8.63
2019-01-31T14:37:33.166Z,9.30
2019-01-31T14:40:00.251Z,8.47
2019-01-31T14:42:28.188Z,8.97
2019-01-31T14:44:55.380Z,9.73
2019-01-31T14:47:22.500Z,9.33
2019-01-31T14:49:49.635Z,10.43
2019-01-31T14:52:16.778Z,9.87
2019-01-31T14:54:43.863Z,9.57
2019-01-31T14:57:11.423Z,8.97
2019-01-31T14:59:38.563Z,9.13
2019-01-31T15:02:05.687Z,9.03
2019-01-31T15:04:32.842Z,9.20
2019-01-31T15:07:00.526Z,9.03
2019-01-31T15:09:27.734Z,8.93
2019-01-31T15:11:54.905Z,9.20
2019-01-31T15:14:31.574Z,8.50
2019-01-31T15:16:49.106Z,9.27
2019-01-31T15:19:16.417Z,8.13
2019-01-31T15:21:44.192Z,7.87
2019-01-31T15:24:12.002Z,8.47
2019-01-31T15:26:39.100Z,9.10
2019-01-31T15:29:06.225Z,8.43
2019-01-31T15:31:33.347Z,8.50
2019-01-31T15:34:00.537Z,8.37
2019-01-31T15:36:27.605Z,8.13
2019-01-31T15:38:54.689Z,8.77
2019-01-31T15:41:21.952Z,7.57
2019-01-31T15:43:49.171Z,9.67
2019-01-31T15:46:18.033Z,8.73
2019-01-31T15:48:43.351Z,8.27
2019-01-31T15:51:10.522Z,8.53
2019-01-31T15:53:37.702Z,9.77
2019-01-31T15:56:06.528Z,8.80
2019-01-31T15:58:33.969Z,8.37
2019-01-31T16:01:01.086Z,8.40
2019-01-31T16:03:28.186Z,9.57
2019-01-31T16:05:56.178Z,9.80
2019-01-31T16:08:23.591Z,9.20
2019-01-31T16:10:50.797Z,9.90
2019-01-31T16:13:17.896Z,9.10
2019-01-31T16:15:45.408Z,9.70
2019-01-31T16:18:13.026Z,10.50
2019-01-31T16:20:40.199Z,10.67
2019-01-31T16:23:07.643Z,10.47
2019-01-31T16:25:34.744Z,10.93
2019-01-31T16:28:02.135Z,10.00
2019-01-31T16:30:29.298Z,10.63
2019-01-31T16:32:56.711Z,11.20
2019-01-31T16:35:24.891Z,11.43
2019-01-31T16:37:53.272Z,10.90
2019-01-31T16:40:21.267Z,11.67
2019-01-31T16:42:48.478Z,11.20
2019-01-31T16:45:15.830Z,10.83
2019-01-31T16:47:43.113Z,10.90
2019-01-31T16:50:12.208Z,10.33
2019-01-31T16:52:39.397Z,10.83
2019-01-31T16:55:08.394Z,10.70
2019-01-31T16:57:35.664Z,10.57
2019-01-31T17:00:03.448Z,11.47
2019-01-31T17:02:30.740Z,11.77
2019-01-31T17:04:58.124Z,11.40
2019-01-31T17:07:25.608Z,12.13
2019-01-31T17:09:53.802Z,11.93
2019-01-31T17:12:23.315Z,12.20
2019-01-31T17:14:50.701Z,12.63
2019-01-31T17:17:18.513Z,14.13
2019-01-31T17:19:46.039Z,14.83
2019-01-31T17:22:13.423Z,13.67
2019-01-31T17:24:40.620Z,14.00
2019-01-31T17:27:08.117Z,15.23
2019-01-31T17:29:35.381Z,13.90
2019-01-31T17:32:02.662Z,15.17
2019-01-31T17:34:31.252Z,16.47
2019-01-31T17:36:58.460Z,14.97
2019-01-31T17:39:27.448Z,17.77
2019-01-31T17:41:54.600Z,18.20
2019-01-31T17:44:22.598Z,16.63
2019-01-31T17:46:49.908Z,15.80
2019-01-31T17:49:17.370Z,16.47
2019-01-31T17:51:44.970Z,16.47
2019-01-31T17:54:12.234Z,16.10
2019-01-31T17:56:39.625Z,16.80
2019-01-31T17:59:07.908Z,17.13
2019-01-31T18:01:35.241Z,17.07
2019-01-31T18:04:02.887Z,17.97
2019-01-31T18:06:30.068Z,18.10
2019-01-31T18:08:57.687Z,18.13
2019-01-31T18:11:24.939Z,17.23
2019-01-31T18:13:53.626Z,17.60
2019-01-31T18:16:21.522Z,17.83
2019-01-31T18:18:48.695Z,18.77
2019-01-31T18:21:16.108Z,18.63
2019-01-31T18:23:45.297Z,19.53
2019-01-31T18:26:12.558Z,19.13
2019-01-31T18:28:40.040Z,19.10
2019-01-31T18:31:08.240Z,18.77
2019-01-31T18:38:30.286Z,18.80
2019-01-31T18:40:57.671Z,19.27
2019-01-31T18:43:25.049Z,20.37
2019-01-31T18:45:53.699Z,19.33
2019-01-31T18:48:19.633Z,18.83
2019-01-31T18:50:46.819Z,19.97
2019-01-31T18:53:14.115Z,19.73
2019-01-31T18:55:42.601Z,21.50
2019-01-31T18:58:10.182Z,20.07
2019-01-31T19:00:39.953Z,20.60
2019-01-31T19:03:07.348Z,20.80
2019-01-31T19:05:34.544Z,19.87
2019-01-31T19:08:05.453Z,23.80
2019-01-31T19:10:42.704Z,19.73
2019-01-31T19:13:01.192Z,21.33
2019-01-31T19:15:29.116Z,20.27
2019-01-31T19:18:05.385Z,21.17
2019-01-31T19:20:28.071Z,21.30
2019-01-31T19:23:01.030Z,19.83
2019-01-31T19:25:32.151Z,19.23
2019-01-31T19:28:04.804Z,19.00
2019-01-31T19:30:34.496Z,19.37
2019-01-31T19:33:03.667Z,20.03
2019-01-31T19:35:31.960Z,19.23
2019-01-31T19:38:02.134Z,19.60
2019-01-31T19:40:28.937Z,20.73
2019-01-31T19:42:56.410Z,20.13
2019-01-31T19:45:28.222Z,19.63
2019-01-31T19:47:55.586Z,18.77
2019-01-31T19:50:22.968Z,20.13
2019-01-31T19:52:54.498Z,18.53
2019-01-31T19:55:21.936Z,18.50
2019-01-31T19:57:49.235Z,19.40
2019-01-31T20:00:18.527Z,19.03
2019-01-31T20:02:45.893Z,19.20
2019-01-31T20:05:13.479Z,20.23
2019-01-31T20:07:40.779Z,21.47
2019-01-31T20:10:08.837Z,20.57
2019-01-31T20:12:36.565Z,19.60
2019-01-31T20:15:05.631Z,20.27
2019-01-31T20:17:32.917Z,19.60
2019-01-31T20:20:01.095Z,19.17
2019-01-31T20:22:28.479Z,21.27
2019-01-31T20:24:59.305Z,18.53
2019-01-31T20:27:26.769Z,29.33
2019-01-31T20:29:54.547Z,31.23
2019-01-31T20:32:22.129Z,24.83
2019-01-31T20:34:49.512Z,21.20
2019-01-31T20:37:16.934Z,20.40
2019-01-31T20:39:44.228Z,20.67
2019-01-31T20:42:11.474Z,20.90
2019-01-31T20:44:38.604Z,19.50
2019-01-31T20:47:05.654Z,20.70
2019-01-31T20:49:33.650Z,22.20
2019-01-31T20:52:00.762Z,22.67
2019-01-31T20:54:28.120Z,21.20
2019-01-31T20:56:55.199Z,20.43
2019-01-31T20:59:22.297Z,21.47
2019-01-31T21:01:49.470Z,21.67
2019-01-31T21:04:17.087Z,20.27
2019-01-31T21:06:44.190Z,20.33
2019-01-31T21:09:11.566Z,21.60
2019-01-31T21:11:38.635Z,20.90
2019-01-31T21:14:06.320Z,22.50
2019-01-31T21:16:33.106Z,21.03
2019-01-31T21:19:02.231Z,21.93
2019-01-31T21:21:29.397Z,22.13
2019-01-31T21:23:56.427Z,22.90
2019-01-31T21:26:24.825Z,22.63
2019-01-31T21:28:50.596Z,23.10
2019-01-31T21:31:18.592Z,24.83
2019-01-31T21:33:45.616Z,24.37
2019-01-31T21:36:12.646Z,24.23
2019-01-31T21:38:39.883Z,23.07
2019-01-31T21:41:06.987Z,24.83
2019-01-31T21:43:35.022Z,25.23
2019-01-31T21:46:02.344Z,25.97
2019-01-31T21:48:30.490Z,24.57
2019-01-31T21:50:56.477Z,26.63
2019-01-31T21:53:23.528Z,25.43
2019-01-31T21:55:50.752Z,24.73
2019-01-31T21:58:17.956Z,24.57
2019-01-31T22:00:45.069Z,26.93
2019-01-31T22:03:12.119Z,24.30
2019-01-31T22:05:39.189Z,25.33
2019-01-31T22:08:06.237Z,26.53
2019-01-31T22:10:33.287Z,26.37
2019-01-31T22:13:02.774Z,26.43
2019-01-31T22:15:29.066Z,26.43
2019-01-31T22:17:58.252Z,26.40
2019-01-31T22:20:24.344Z,27.20
2019-01-31T22:22:51.365Z,26.83
2019-01-31T22:25:19.302Z,26.97
2019-01-31T22:27:46.340Z,28.93
2019-01-31T22:30:16.192Z,26.67
2019-01-31T22:32:43.280Z,27.33
2019-01-31T22:35:10.325Z,25.63
2019-01-31T22:37:37.307Z,28.70
2019-01-31T22:40:04.896Z,27.80
2019-01-31T22:42:31.846Z,25.97
2019-01-31T22:44:58.812Z,27.07
2019-01-31T22:47:26.571Z,26.57
2019-01-31T22:49:52.848Z,27.10
2019-01-31T22:52:19.901Z,26.67
2019-01-31T22:54:47.443Z,27.27
2019-01-31T22:57:14.437Z,27.47
2019-01-31T22:59:41.460Z,28.10
2019-01-31T23:02:11.913Z,26.70
2019-01-31T23:04:38.913Z,26.03
2019-01-31T23:07:05.937Z,27.63
2019-01-31T23:09:32.944Z,26.10
2019-01-31T23:11:59.888Z,26.67
2019-01-31T23:14:26.850Z,25.60
2019-01-31T23:16:53.873Z,27.63
2019-01-31T23:19:20.796Z,25.93
2019-01-31T23:21:47.782Z,26.50
2019-01-31T23:24:14.752Z,27.53
2019-01-31T23:26:42.252Z,26.67
2019-01-31T23:29:09.211Z,27.10
2019-01-31T23:31:36.167Z,26.50
2019-01-31T23:34:03.553Z,25.43
2019-01-31T23:36:30.580Z,27.93
2019-01-31T23:38:57.541Z,25.43
2019-01-31T23:41:24.521Z,27.40
2019-01-31T23:43:51.456Z,26.93
2019-01-31T23:46:18.447Z,26.73
2019-01-31T23:48:45.397Z,27.17
2019-01-31T23:51:12.338Z,26.57
2019-01-31T23:53:39.309Z,25.47
2019-01-31T23:56:06.316Z,26.10
2019-01-31T23:58:33.221Z,24.73
